Time;durP1;ratioP1;P1;durP2;ratioP2;P2;SDS_P1;SDS_P2;PMS_P1;PMS_P2;Temp;Humidity;BMP_temperature;BMP_pressure;BME280_temperature;BME280_humidity;BME280_pressure;Samples;Min_cycle;Max_cycle;Signal;HPM_P1;HPM_P2
2022/12/14 00:00:49;;;;;;;180.48;83.75;;;1.70;99.90;;;;;;5117588;28;20020;-70
2022/12/14 00:03:16;;;;;;;199.98;93.22;;;1.80;99.90;;;;;;5117179;28;20281;-70
2022/12/14 00:05:42;;;;;;;191.85;90.45;;;1.70;99.90;;;;;;5098985;28;20057;-70
2022/12/14 00:08:08;;;;;;;204.25;97.63;;;1.70;99.90;;;;;;5117137;28;20101;-70
2022/12/14 00:10:36;;;;;;;210.68;95.43;;;1.70;99.90;;;;;;5098824;28;20039;-70
2022/12/14 00:13:03;;;;;;;233.45;108.93;;;1.80;99.90;;;;;;5117508;28;20016;-70
2022/12/14 00:15:29;;;;;;;248.32;110.45;;;1.80;99.90;;;;;;5116986;28;20388;-70
2022/12/14 00:17:55;;;;;;;246.05;108.75;;;1.80;99.90;;;;;;5117139;28;20026;-70
2022/12/14 00:20:21;;;;;;;197.45;94.13;;;1.80;99.90;;;;;;5116767;28;20485;-70
2022/12/14 00:22:47;;;;;;;204.93;93.28;;;1.80;99.90;;;;;;5116970;28;20343;-70
2022/12/14 00:25:13;;;;;;;285.70;123.78;;;1.70;99.90;;;;;;5116711;28;20077;-70
2022/12/14 00:27:43;;;;;;;253.65;111.80;;;1.70;99.90;;;;;;5116806;28;20038;-70
2022/12/14 00:30:15;;;;;;;265.02;116.18;;;1.70;99.90;;;;;;5115304;28;20023;-70
2022/12/14 00:32:41;;;;;;;274.38;122.70;;;1.70;99.90;;;;;;5116707;28;20032;-70
2022/12/14 00:35:09;;;;;;;306.88;130.27;;;1.60;99.90;;;;;;5116721;28;20023;-70
2022/12/14 00:37:36;;;;;;;274.27;121.03;;;1.60;99.90;;;;;;5098360;28;20039;-70
2022/12/14 00:40:05;;;;;;;251.10;111.68;;;1.70;99.90;;;;;;5116720;28;20022;-70
2022/12/14 00:42:31;;;;;;;276.73;117.60;;;1.80;99.90;;;;;;5116358;28;20050;-70
2022/12/14 00:44:57;;;;;;;243.82;110.53;;;1.80;99.90;;;;;;5116474;28;20023;-70
2022/12/14 00:47:23;;;;;;;229.68;105.63;;;1.70;99.90;;;;;;5116454;28;20398;-70
2022/12/14 00:49:49;;;;;;;222.35;107.00;;;1.80;99.90;;;;;;5116471;28;20031;-70
2022/12/14 00:52:15;;;;;;;214.32;102.93;;;1.70;99.90;;;;;;5116338;28;20028;-70
2022/12/14 00:54:41;;;;;;;249.13;113.38;;;1.70;99.90;;;;;;5116200;28;20019;-70
2022/12/14 00:57:07;;;;;;;238.30;112.43;;;1.70;99.90;;;;;;5116167;28;20035;-70
2022/12/14 00:59:33;;;;;;;241.60;111.07;;;1.80;99.90;;;;;;5116373;28;20019;-70
2022/12/14 01:01:59;;;;;;;254.18;118.85;;;1.80;99.90;;;;;;5116000;28;20038;-70
2022/12/14 01:04:26;;;;;;;291.25;127.53;;;1.90;99.90;;;;;;5115977;28;20031;-70
2022/12/14 01:06:53;;;;;;;234.27;108.28;;;1.90;99.90;;;;;;5116085;28;20028;-70
2022/12/14 01:09:21;;;;;;;217.65;100.85;;;1.90;99.90;;;;;;5115812;28;20607;-70
2022/12/14 01:11:47;;;;;;;197.55;94.10;;;2.00;99.90;;;;;;5116101;28;20028;-70
2022/12/14 01:14:16;;;;;;;207.98;97.65;;;1.90;99.90;;;;;;5115675;28;20032;-70
2022/12/14 01:16:42;;;;;;;195.45;93.25;;;2.00;99.90;;;;;;5115888;28;20023;-70
2022/12/14 01:19:11;;;;;;;195.65;92.72;;;2.00;99.90;;;;;;5115551;28;20381;-69
2022/12/14 01:21:37;;;;;;;209.68;98.72;;;1.90;99.90;;;;;;5115828;28;20036;-70
2022/12/14 01:24:04;;;;;;;219.00;103.63;;;2.00;99.90;;;;;;5115790;28;20401;-70
2022/12/14 01:26:34;;;;;;;211.50;98.25;;;2.00;99.90;;;;;;5115608;28;20023;-70
2022/12/14 01:29:01;;;;;;;205.88;98.43;;;1.90;99.90;;;;;;5115576;28;20027;-70
2022/12/14 01:31:33;;;;;;;215.85;99.50;;;1.90;99.90;;;;;;5115509;28;20248;-70
2022/12/14 01:33:59;;;;;;;218.38;100.07;;;2.00;99.90;;;;;;5115470;28;20024;-70
2022/12/14 01:36:28;;;;;;;211.65;99.25;;;2.00;99.90;;;;;;5115410;28;20032;-70
2022/12/14 01:39:03;;;;;;;219.25;101.50;;;2.00;99.90;;;;;;5115635;28;20027;-70
2022/12/14 01:41:36;;;;;;;211.25;100.15;;;1.90;99.90;;;;;;5114994;28;20028;-70
2022/12/14 01:44:21;;;;;;;218.57;103.63;;;1.90;99.90;;;;;;5115462;28;20089;-70
2022/12/14 01:46:59;;;;;;;222.35;103.47;;;1.90;99.90;;;;;;5113923;28;20035;-70
2022/12/14 01:49:30;;;;;;;228.73;106.93;;;1.80;99.90;;;;;;5115005;28;20035;-70
2022/12/14 01:51:59;;;;;;;212.88;106.95;;;1.90;99.90;;;;;;5115253;28;20035;-70
2022/12/14 01:54:30;;;;;;;229.32;108.18;;;1.80;99.90;;;;;;5114942;28;20115;-70
2022/12/14 01:56:56;;;;;;;219.45;107.32;;;1.80;99.90;;;;;;5115121;28;20031;-70
2022/12/14 01:59:30;;;;;;;229.35;108.15;;;1.90;99.90;;;;;;5114922;28;20106;-70
2022/12/14 02:01:58;;;;;;;228.55;109.78;;;1.90;99.90;;;;;;5115030;28;20027;-70
2022/12/14 02:04:24;;;;;;;227.50;107.63;;;1.90;99.90;;;;;;5114882;28;20043;-70
2022/12/14 02:06:52;;;;;;;223.95;108.30;;;1.90;99.90;;;;;;5115118;28;20023;-70
2022/12/14 02:09:25;;;;;;;213.63;106.20;;;1.90;99.90;;;;;;5096360;28;20039;-70
2022/12/14 02:12:09;;;;;;;221.38;107.18;;;2.00;99.90;;;;;;5115332;28;20030;-70
2022/12/14 02:14:35;;;;;;;220.32;105.72;;;1.90;99.90;;;;;;5114970;28;20069;-70
2022/12/14 02:17:02;;;;;;;212.77;103.85;;;1.80;99.90;;;;;;5114917;28;20020;-70
2022/12/14 02:19:28;;;;;;;214.93;106.55;;;1.70;99.90;;;;;;5114554;28;20062;-70
2022/12/14 02:22:12;;;;;;;217.82;105.72;;;1.80;99.90;;;;;;5114776;28;20028;-70
2022/12/14 02:25:15;;;;;;;210.85;99.20;;;1.80;99.90;;;;;;5114779;28;20035;-70
2022/12/14 02:28:04;;;;;;;196.68;95.07;;;1.90;99.90;;;;;;5114774;28;20424;-70
2022/12/14 02:30:38;;;;;;;194.73;93.63;;;1.80;99.90;;;;;;5114482;28;20032;-70
2022/12/14 02:33:18;;;;;;;201.50;93.40;;;1.70;99.90;;;;;;5114544;28;20027;-70
2022/12/14 02:36:02;;;;;;;193.05;92.53;;;1.80;99.90;;;;;;5114780;28;20080;-70
2022/12/14 02:38:54;;;;;;;207.10;93.70;;;1.70;99.90;;;;;;5114347;28;20027;-70
2022/12/14 02:41:54;;;;;;;191.35;91.47;;;1.70;99.90;;;;;;5114224;28;20538;-70
2022/12/14 02:44:37;;;;;;;196.82;96.40;;;1.80;99.90;;;;;;5114048;28;20032;-70
2022/12/14 02:47:12;;;;;;;194.43;91.38;;;1.80;99.90;;;;;;5114577;28;20542;-70
2022/12/14 02:49:47;;;;;;;193.45;92.15;;;1.80;99.90;;;;;;5114359;28;20073;-70
2022/12/14 02:52:25;;;;;;;193.45;92.03;;;1.70;99.90;;;;;;5114358;28;20024;-70
2022/12/14 02:55:00;;;;;;;188.20;91.85;;;1.70;99.90;;;;;;5118458;28;20386;-70
2022/12/14 02:57:41;;;;;;;196.35;91.70;;;1.70;99.90;;;;;;5118514;28;20379;-70
2022/12/14 03:00:08;;;;;;;184.35;89.22;;;1.80;99.90;;;;;;5118424;28;20023;-70
2022/12/14 03:02:37;;;;;;;182.73;86.32;;;1.80;99.90;;;;;;5118678;28;20051;-70
2022/12/14 03:05:08;;;;;;;181.38;87.63;;;1.80;99.90;;;;;;5118260;28;20050;-70
2022/12/14 03:07:36;;;;;;;179.60;87.55;;;1.70;99.90;;;;;;5118231;28;20031;-70
2022/12/14 03:10:10;;;;;;;180.32;91.38;;;1.70;99.90;;;;;;5118411;28;20020;-70
2022/12/14 03:12:41;;;;;;;174.95;89.68;;;1.80;99.90;;;;;;5118435;28;20020;-70
2022/12/14 03:15:11;;;;;;;175.45;87.15;;;1.80;99.90;;;;;;5118224;28;20416;-70
2022/12/14 03:17:38;;;;;;;181.07;88.65;;;1.70;99.90;;;;;;5118334;28;20028;-70
2022/12/14 03:20:13;;;;;;;177.00;85.68;;;1.70;99.90;;;;;;5118045;28;20032;-70
2022/12/14 03:22:48;;;;;;;180.70;86.75;;;1.60;99.90;;;;;;5118233;28;20020;-70
2022/12/14 03:25:19;;;;;;;184.25;89.15;;;1.70;99.90;;;;;;5117916;28;20110;-70
2022/12/14 03:28:02;;;;;;;174.13;89.68;;;1.70;99.90;;;;;;5118075;28;20041;-70
2022/12/14 03:30:29;;;;;;;182.00;86.90;;;1.80;99.90;;;;;;5118232;28;20102;-70
2022/12/14 03:33:02;;;;;;;168.32;84.63;;;1.80;99.90;;;;;;5117934;28;20028;-70
2022/12/14 03:35:33;;;;;;;161.65;81.05;;;1.90;99.90;;;;;;5117823;28;20106;-70
2022/12/14 03:38:37;;;;;;;168.77;81.40;;;1.80;99.90;;;;;;5117849;28;20080;-70
2022/12/14 03:41:32;;;;;;;148.07;72.57;;;1.90;99.90;;;;;;5113137;28;20040;-70
2022/12/14 03:44:10;;;;;;;154.77;75.57;;;2.00;99.90;;;;;;5065955;28;20062;-70
2022/12/14 03:47:05;;;;;;;165.48;76.65;;;2.00;99.90;;;;;;5117868;28;20102;-70
2022/12/14 03:49:43;;;;;;;153.25;75.68;;;2.10;99.90;;;;;;5095533;28;20374;-70
2022/12/14 03:52:37;;;;;;;161.07;76.25;;;2.00;99.90;;;;;;5097067;28;20038;-70
2022/12/14 03:55:36;;;;;;;156.68;76.50;;;2.00;99.90;;;;;;5094944;28;20032;-70
2022/12/14 03:58:08;;;;;;;146.55;70.78;;;2.10;99.90;;;;;;5086307;28;20098;-70
2022/12/14 04:00:48;;;;;;;157.55;77.07;;;2.10;99.90;;;;;;5097052;28;20077;-70
2022/12/14 04:03:26;;;;;;;149.38;74.30;;;1.90;99.90;;;;;;5096758;28;20482;-70
2022/12/14 04:06:17;;;;;;;146.10;74.18;;;2.00;99.90;;;;;;5096677;28;20024;-70
2022/12/14 04:08:52;;;;;;;149.90;71.35;;;2.00;99.90;;;;;;5078868;28;20135;-70
2022/12/14 04:20:08;;;;;;;154.25;74.13;;;2.20;99.90;;;;;;5117070;28;20047;-70
2022/12/14 04:22:40;;;;;;;147.55;73.20;;;2.20;99.90;;;;;;5117152;28;20051;-70
2022/12/14 04:31:08;;;;;;;153.07;75.15;;;1.80;99.90;;;;;;5116899;28;20024;-70
2022/12/14 04:33:47;;;;;;;155.47;73.73;;;1.80;99.90;;;;;;5116863;28;20047;-70
2022/12/14 04:36:36;;;;;;;151.73;76.28;;;1.90;99.90;;;;;;5116554;28;20032;-70
2022/12/14 04:39:10;;;;;;;164.60;78.50;;;2.10;99.90;;;;;;5103379;28;20040;-70
2022/12/14 04:41:43;;;;;;;165.32;77.00;;;2.10;99.90;;;;;;5116591;28;20031;-70
2022/12/14 04:44:16;;;;;;;160.18;76.70;;;1.90;99.90;;;;;;5116477;28;20027;-70
2022/12/14 04:46:44;;;;;;;164.45;77.32;;;2.00;99.90;;;;;;5116454;28;20364;-70
2022/12/14 04:49:18;;;;;;;156.65;75.13;;;2.00;99.90;;;;;;5116282;28;20454;-70
2022/12/14 04:52:01;;;;;;;151.32;73.68;;;2.00;99.90;;;;;;5116627;28;20019;-70
2022/12/14 04:54:48;;;;;;;165.95;77.90;;;2.10;99.90;;;;;;5097837;28;20042;-70
2022/12/14 04:57:36;;;;;;;148.98;72.10;;;2.10;99.90;;;;;;5116146;28;20024;-70
2022/12/14 05:00:04;;;;;;;136.15;69.20;;;2.00;99.90;;;;;;5116259;28;20035;-70
2022/12/14 05:02:49;;;;;;;138.70;67.45;;;2.00;99.90;;;;;;5116260;28;20030;-70
2022/12/14 05:05:48;;;;;;;144.30;70.43;;;2.00;99.90;;;;;;5115746;28;20088;-70
2022/12/14 05:08:32;;;;;;;157.05;79.55;;;2.10;99.90;;;;;;5115878;28;20062;-70
2022/12/14 05:11:23;;;;;;;135.80;68.55;;;2.00;99.90;;;;;;5116019;28;20481;-70
2022/12/14 05:13:49;;;;;;;;;;;2.00;99.90;;;;;;5116600;28;20035;-70
2022/12/14 05:16:21;;;;;;;146.73;71.45;;;2.00;99.90;;;;;;5115159;28;19908;-70
2022/12/14 05:18:48;;;;;;;140.40;67.82;;;2.10;99.90;;;;;;5115825;28;20478;-70
2022/12/14 05:24:19;;;;;;;146.10;72.20;;;2.20;99.90;;;;;;5052543;28;20041;-70
2022/12/14 05:26:44;;;;;;;154.98;74.95;;;2.10;99.90;;;;;;5036047;28;20037;-70
2022/12/14 05:29:10;;;;;;;159.90;76.43;;;2.10;99.90;;;;;;5052130;28;20459;-70
2022/12/14 05:31:37;;;;;;;146.88;74.05;;;2.10;99.90;;;;;;5052447;28;20128;-70
2022/12/14 05:34:03;;;;;;;158.73;83.13;;;1.90;99.90;;;;;;5052547;28;20412;-70
2022/12/14 05:36:28;;;;;;;167.75;82.18;;;1.90;99.90;;;;;;5052155;28;20070;-70
2022/12/14 05:38:54;;;;;;;158.82;81.22;;;1.90;99.90;;;;;;5052498;28;20036;-70
2022/12/14 05:41:20;;;;;;;156.73;76.93;;;1.80;99.90;;;;;;5052108;28;20560;-70
2022/12/14 05:43:46;;;;;;;185.35;88.78;;;1.90;99.90;;;;;;5052201;28;20478;-70
2022/12/14 05:46:12;;;;;;;216.88;101.60;;;1.90;99.90;;;;;;5052030;28;20069;-70
2022/12/14 05:48:38;;;;;;;218.88;101.35;;;1.90;99.90;;;;;;5052183;28;20155;-70
2022/12/14 05:51:12;;;;;;;211.77;97.72;;;1.90;99.90;;;;;;5051880;28;20068;-70
2022/12/14 05:53:39;;;;;;;190.45;92.72;;;1.90;99.90;;;;;;5052155;28;20052;-70
2022/12/14 05:56:07;;;;;;;183.20;86.05;;;2.00;99.90;;;;;;5091398;28;20036;-70
2022/12/14 05:58:34;;;;;;;204.50;94.00;;;2.00;99.90;;;;;;5094670;28;20035;-70
2022/12/14 06:01:01;;;;;;;201.32;93.25;;;2.00;99.90;;;;;;5094793;28;20028;-70
2022/12/14 06:03:28;;;;;;;240.00;108.57;;;2.00;99.90;;;;;;5094474;28;20185;-70
2022/12/14 06:05:59;;;;;;;185.70;89.35;;;2.00;99.90;;;;;;5094471;28;20478;-70
2022/12/14 06:08:24;;;;;;;182.57;86.70;;;2.00;99.90;;;;;;5094198;28;20028;-70
2022/12/14 06:10:50;;;;;;;169.32;81.18;;;1.90;99.90;;;;;;5113157;28;20027;-70
2022/12/14 06:13:16;;;;;;;147.25;72.55;;;2.00;99.90;;;;;;5114672;28;20019;-70
2022/12/14 06:15:42;;;;;;;148.18;73.10;;;2.00;99.90;;;;;;5115486;28;20103;-70
2022/12/14 06:18:08;;;;;;;132.80;67.80;;;1.90;99.90;;;;;;5112678;28;20069;-70
2022/12/14 06:20:34;;;;;;;144.00;70.72;;;1.80;99.90;;;;;;5113547;28;20090;-70
2022/12/14 06:23:00;;;;;;;186.90;88.03;;;1.80;99.90;;;;;;5090724;28;20042;-70
2022/12/14 06:25:26;;;;;;;220.15;97.95;;;1.90;99.90;;;;;;5111755;28;20416;-70
2022/12/14 06:27:53;;;;;;;222.35;95.95;;;2.00;99.90;;;;;;5114381;28;20028;-70
2022/12/14 06:30:22;;;;;;;260.60;108.32;;;1.90;99.90;;;;;;5113553;28;20064;-70
2022/12/14 06:32:48;;;;;;;300.80;127.03;;;1.90;99.90;;;;;;5114295;28;20224;-70
2022/12/14 06:35:14;;;;;;;287.33;127.40;;;1.80;99.90;;;;;;5111754;28;20091;-70
2022/12/14 06:37:39;;;;;;;196.80;96.35;;;1.70;99.90;;;;;;5112730;28;20034;-70
2022/12/14 06:40:06;;;;;;;168.20;83.03;;;1.80;99.90;;;;;;5114556;28;20020;-70
2022/12/14 06:42:32;;;;;;;166.15;80.63;;;1.90;99.90;;;;;;5112863;28;20059;-71
2022/12/14 06:44:58;;;;;;;184.65;93.90;;;2.00;99.90;;;;;;5114375;28;20031;-70
2022/12/14 06:47:24;;;;;;;180.07;95.47;;;1.90;99.90;;;;;;5114288;28;20488;-70
2022/12/14 06:49:52;;;;;;;183.43;86.80;;;1.90;99.90;;;;;;5113926;28;20491;-70
2022/12/14 06:52:18;;;;;;;171.32;80.28;;;1.90;99.90;;;;;;5114042;28;20024;-70
2022/12/14 06:54:45;;;;;;;176.38;84.30;;;1.90;99.90;;;;;;5113872;28;20055;-71
2022/12/14 06:57:11;;;;;;;188.57;91.45;;;2.00;99.90;;;;;;5114166;28;20589;-71
2022/12/14 06:59:37;;;;;;;175.27;88.68;;;2.10;99.90;;;;;;5114330;28;20127;-72
2022/12/14 07:02:03;;;;;;;222.93;110.50;;;2.10;99.90;;;;;;5113092;28;20088;-72
2022/12/14 07:04:29;;;;;;;200.68;101.70;;;2.20;99.90;;;;;;5114394;28;20027;-72
2022/12/14 07:06:54;;;;;;;184.10;91.60;;;2.30;99.90;;;;;;5081414;28;20063;-70
2022/12/14 07:09:20;;;;;;;197.60;93.57;;;2.30;99.90;;;;;;5110473;28;20145;-70
2022/12/14 07:11:50;;;;;;;164.95;79.50;;;2.40;99.90;;;;;;5110788;28;20023;-70
2022/12/14 07:14:16;;;;;;;137.68;72.65;;;2.50;99.90;;;;;;5105165;28;20024;-70
2022/12/14 07:16:42;;;;;;;132.88;69.63;;;2.50;99.90;;;;;;5093521;28;20028;-70
2022/12/14 07:19:09;;;;;;;131.05;69.00;;;2.60;99.90;;;;;;5108774;28;20030;-70
2022/12/14 07:21:35;;;;;;;131.15;69.70;;;2.50;99.90;;;;;;5100728;28;20512;-70
2022/12/14 07:24:02;;;;;;;126.00;66.43;;;2.40;99.90;;;;;;5075113;28;20051;-70
2022/12/14 07:26:29;;;;;;;132.98;69.80;;;2.30;99.90;;;;;;5088776;28;20028;-70
2022/12/14 07:28:57;;;;;;;136.15;73.68;;;2.30;99.90;;;;;;5111208;28;20108;-72
2022/12/14 07:31:26;;;;;;;133.63;73.18;;;2.30;99.90;;;;;;5100753;28;20100;-72
2022/12/14 07:33:54;;;;;;;143.75;69.18;;;2.30;99.90;;;;;;5115039;28;20024;-72
2022/12/14 07:36:24;;;;;;;145.85;73.45;;;2.40;99.90;;;;;;5110661;28;20079;-71
2022/12/14 07:38:50;;;;;;;148.82;74.55;;;2.50;99.90;;;;;;5113087;28;20115;-72
2022/12/14 07:41:20;;;;;;;152.18;76.45;;;2.50;99.90;;;;;;5115065;28;20027;-71
2022/12/14 07:43:46;;;;;;;141.32;72.40;;;2.40;99.90;;;;;;5116081;27;20031;-72
2022/12/14 07:46:15;;;;;;;149.88;74.75;;;2.40;99.90;;;;;;5115652;28;20028;-70
2022/12/14 07:48:46;;;;;;;146.20;71.53;;;2.50;99.90;;;;;;5112436;28;20134;-71
2022/12/14 07:51:15;;;;;;;148.60;73.45;;;2.60;99.90;;;;;;5113162;28;20149;-70
2022/12/14 07:53:42;;;;;;;143.93;75.35;;;2.60;99.90;;;;;;5111636;28;20030;-70
2022/12/14 07:56:18;;;;;;;142.52;72.43;;;2.60;99.90;;;;;;5092849;28;20049;-70
2022/12/14 07:58:45;;;;;;;150.50;76.97;;;2.60;99.90;;;;;;5120450;27;20027;-70
2022/12/14 08:01:25;;;;;;;139.18;73.75;;;2.60;99.90;;;;;;5113582;28;20088;-70
2022/12/14 08:03:54;;;;;;;150.98;71.25;;;2.80;99.90;;;;;;5117534;28;20369;-70
2022/12/14 08:06:22;;;;;;;152.13;73.28;;;2.80;99.90;;;;;;5117429;28;20034;-70
2022/12/14 08:08:49;;;;;;;152.40;76.10;;;2.90;99.90;;;;;;5116701;28;20035;-71
2022/12/14 08:11:16;;;;;;;157.88;75.57;;;2.90;99.90;;;;;;5117947;28;20062;-71
2022/12/14 08:13:42;;;;;;;145.23;76.47;;;3.00;99.90;;;;;;5098942;28;20114;-70
2022/12/14 08:16:12;;;;;;;139.90;71.82;;;3.10;99.90;;;;;;5112309;27;20028;-71
2022/12/14 08:18:39;;;;;;;147.90;74.93;;;3.10;99.90;;;;;;5110924;28;20473;-70
2022/12/14 08:21:07;;;;;;;149.70;77.13;;;3.10;99.90;;;;;;5123195;27;20058;-70
2022/12/14 08:23:34;;;;;;;148.15;77.65;;;3.20;99.90;;;;;;5114260;28;20027;-70
2022/12/14 08:26:01;;;;;;;146.52;75.25;;;3.50;99.90;;;;;;5115853;28;20059;-70
2022/12/14 08:28:29;;;;;;;150.32;76.22;;;3.60;99.90;;;;;;5116026;28;20097;-71
2022/12/14 08:31:01;;;;;;;144.13;75.55;;;3.50;99.90;;;;;;5111320;28;20142;-71
2022/12/14 08:33:27;;;;;;;153.30;77.43;;;3.50;99.90;;;;;;5115935;27;20664;-71
2022/12/14 08:35:53;;;;;;;142.73;74.10;;;3.70;99.90;;;;;;5115861;28;20036;-70
2022/12/14 08:38:19;;;;;;;144.13;73.78;;;3.50;99.90;;;;;;5114331;27;20047;-71
2022/12/14 08:40:45;;;;;;;153.45;76.38;;;3.50;99.90;;;;;;5114248;28;20058;-71
2022/12/14 08:43:11;;;;;;;152.90;76.25;;;3.70;99.90;;;;;;5109396;27;20023;-71
2022/12/14 08:45:37;;;;;;;150.27;74.78;;;3.60;99.90;;;;;;5110152;28;20565;-71
2022/12/14 08:48:04;;;;;;;145.50;77.93;;;3.70;99.90;;;;;;5113423;28;20102;-71
2022/12/14 08:50:30;;;;;;;148.90;75.53;;;3.70;99.90;;;;;;5069890;28;20505;-71
2022/12/14 08:52:56;;;;;;;140.30;72.75;;;3.70;99.90;;;;;;5089572;28;20410;-72
2022/12/14 08:55:22;;;;;;;151.98;76.10;;;3.70;99.90;;;;;;5088521;28;20378;-71
2022/12/14 08:57:48;;;;;;;145.35;73.00;;;3.60;99.90;;;;;;5088982;28;20031;-71
2022/12/14 09:00:15;;;;;;;134.38;71.45;;;3.50;99.90;;;;;;5088204;28;20458;-71
2022/12/14 09:02:41;;;;;;;140.60;74.60;;;3.60;99.90;;;;;;5091711;27;20088;-72
2022/12/14 09:05:08;;;;;;;142.35;73.53;;;3.50;99.90;;;;;;5088883;28;20481;-73
2022/12/14 09:07:34;;;;;;;150.93;82.90;;;3.50;99.90;;;;;;5089318;28;20032;-70
2022/12/14 09:10:00;;;;;;;182.23;91.95;;;3.60;99.90;;;;;;5088498;28;20042;-72
2022/12/14 09:12:27;;;;;;;166.95;83.60;;;3.70;99.90;;;;;;5089597;28;20089;-72
2022/12/14 09:14:53;;;;;;;147.55;77.18;;;3.70;99.90;;;;;;5089648;28;20020;-71
2022/12/14 09:17:19;;;;;;;151.32;77.07;;;3.80;99.90;;;;;;5094154;28;20833;-73
2022/12/14 09:19:45;;;;;;;146.13;79.40;;;3.80;99.90;;;;;;5093482;28;20051;-71
2022/12/14 09:22:12;;;;;;;155.90;76.45;;;3.80;99.90;;;;;;5089074;28;20807;-71
2022/12/14 09:24:38;;;;;;;157.50;78.45;;;3.80;99.90;;;;;;5083277;28;20798;-73
2022/12/14 09:27:04;;;;;;;150.98;77.05;;;3.80;99.90;;;;;;5079434;28;20042;-72
2022/12/14 09:29:30;;;;;;;156.00;82.63;;;3.90;99.90;;;;;;5091808;28;20618;-71
2022/12/14 09:31:56;;;;;;;183.20;89.65;;;4.00;99.90;;;;;;5093058;28;20122;-71
2022/12/14 09:34:23;;;;;;;199.13;95.45;;;4.10;99.90;;;;;;5091905;28;20024;-71
2022/12/14 09:36:49;;;;;;;190.50;95.47;;;4.10;99.90;;;;;;5086816;28;20416;-70
2022/12/14 09:39:15;;;;;;;181.77;91.10;;;4.00;99.90;;;;;;5086753;28;20028;-70
2022/12/14 09:41:44;;;;;;;231.75;109.53;;;3.90;99.90;;;;;;5087937;28;20034;-70
2022/12/14 09:44:58;;;;;;;205.27;100.25;;;4.10;99.90;;;;;;5082326;28;20028;-71
2022/12/14 09:47:53;;;;;;;218.15;99.78;;;4.20;99.90;;;;;;5054259;28;20560;-70
2022/12/14 09:50:21;;;;;;;200.35;95.93;;;4.20;99.90;;;;;;5085870;28;20035;-70
2022/12/14 09:52:56;;;;;;;200.15;91.80;;;4.20;99.90;;;;;;5087486;28;20533;-71
2022/12/14 09:55:33;;;;;;;161.13;81.30;;;4.30;99.90;;;;;;5086980;28;20222;-73
2022/12/14 09:58:11;;;;;;;140.70;74.07;;;4.30;99.90;;;;;;5086731;28;20628;-71
2022/12/14 10:00:45;;;;;;;134.70;73.10;;;4.30;99.90;;;;;;5087272;28;20597;-71
2022/12/14 10:03:38;;;;;;;139.10;72.25;;;4.30;99.90;;;;;;5087715;28;20051;-71
2022/12/14 10:06:33;;;;;;;159.70;76.70;;;4.30;99.90;;;;;;5085156;28;20023;-73
2022/12/14 10:09:04;;;;;;;150.45;76.22;;;4.30;99.90;;;;;;5084949;28;20042;-73
2022/12/14 10:11:56;;;;;;;137.70;71.82;;;4.40;99.90;;;;;;5085378;28;20497;-73
2022/12/14 10:14:45;;;;;;;149.48;75.82;;;4.30;99.90;;;;;;5081410;28;20252;-75
2022/12/14 10:17:39;;;;;;;153.35;80.03;;;4.40;99.90;;;;;;5084469;28;20092;-73
2022/12/14 10:20:34;;;;;;;159.48;80.35;;;4.60;99.90;;;;;;5084601;28;20393;-74
2022/12/14 10:23:02;;;;;;;146.95;76.28;;;4.70;99.90;;;;;;5078028;28;20048;-74
2022/12/14 10:25:34;;;;;;;164.52;83.05;;;4.90;99.90;;;;;;5084809;28;20138;-74
2022/12/14 10:28:05;;;;;;;152.07;79.57;;;5.10;99.90;;;;;;5085936;28;20547;-74
2022/12/14 10:30:31;;;;;;;148.85;80.32;;;5.10;99.90;;;;;;5080868;28;20063;-74
2022/12/14 10:33:28;;;;;;;152.10;80.15;;;5.20;99.90;;;;;;5085625;28;20035;-75
2022/12/14 10:35:55;;;;;;;125.05;66.22;;;5.10;99.90;;;;;;5082246;28;20625;-75
2022/12/14 10:38:26;;;;;;;118.80;63.10;;;5.20;99.90;;;;;;5084358;28;20035;-75
2022/12/14 10:41:01;;;;;;;132.35;68.15;;;5.00;99.90;;;;;;5081338;28;20524;-75
2022/12/14 10:43:42;;;;;;;127.18;67.82;;;5.00;99.90;;;;;;5075645;28;20077;-73
2022/12/14 10:46:43;;;;;;;133.15;70.25;;;4.90;99.90;;;;;;5085955;28;20764;-75
2022/12/14 10:49:53;;;;;;;128.13;69.32;;;4.90;99.90;;;;;;5046072;28;20036;-74
2022/12/14 10:52:24;;;;;;;131.73;70.17;;;4.70;99.90;;;;;;4944488;28;20037;-73
2022/12/14 10:54:53;;;;;;;;;;;4.70;99.90;;;;;;4946418;28;20034;-72
2022/12/14 10:57:21;;;;;;;137.02;71.95;;;4.70;99.90;;;;;;4948965;28;20388;-73
2022/12/14 10:59:47;;;;;;;128.27;67.75;;;4.60;99.90;;;;;;4948325;28;20078;-72
2022/12/14 11:02:15;;;;;;;129.73;69.55;;;4.60;99.90;;;;;;4944715;28;20039;-73
2022/12/14 11:04:55;;;;;;;130.95;69.35;;;4.70;99.90;;;;;;4935878;28;20045;-74
2022/12/14 11:07:32;;;;;;;125.18;66.38;;;4.80;99.90;;;;;;4941162;28;20035;-73
2022/12/14 11:10:31;;;;;;;132.65;67.53;;;4.80;99.90;;;;;;4936417;28;20034;-74
2022/12/14 11:13:15;;;;;;;123.35;65.05;;;4.90;99.90;;;;;;4941893;28;20047;-74
2022/12/14 11:15:51;;;;;;;116.85;63.85;;;4.90;99.90;;;;;;4936028;28;20074;-73
2022/12/14 11:18:18;;;;;;;114.00;61.58;;;5.00;99.90;;;;;;4930692;28;20030;-74
2022/12/14 11:20:51;;;;;;;111.40;59.47;;;5.00;99.90;;;;;;4931993;28;20442;-75
2022/12/14 11:23:37;;;;;;;110.13;58.63;;;5.20;99.90;;;;;;5011092;28;20145;-73
2022/12/14 11:26:08;;;;;;;109.88;59.10;;;5.50;99.90;;;;;;5069238;28;20575;-74
2022/12/14 11:28:45;;;;;;;112.80;59.63;;;5.50;99.90;;;;;;5076005;28;20043;-75
2022/12/14 11:31:20;;;;;;;100.72;55.72;;;5.80;99.90;;;;;;5090219;28;20031;-75
2022/12/14 11:33:49;;;;;;;103.63;53.50;;;5.90;99.90;;;;;;5089389;28;20028;-75
2022/12/14 11:36:42;;;;;;;105.55;56.15;;;5.80;99.90;;;;;;5087995;28;20497;-75
2022/12/14 11:39:14;;;;;;;98.60;55.05;;;6.00;99.90;;;;;;5074252;28;20043;-76
2022/12/14 11:41:43;;;;;;;112.95;55.95;;;6.40;99.90;;;;;;5089580;28;20054;-75
2022/12/14 11:44:15;;;;;;;105.25;55.95;;;6.60;99.90;;;;;;5087590;28;20147;-75
2022/12/14 11:46:47;;;;;;;109.25;58.65;;;6.70;99.90;;;;;;5089706;28;20037;-75
2022/12/14 11:49:38;;;;;;;106.68;56.60;;;6.60;99.90;;;;;;5088350;28;20211;-75
2022/12/14 11:52:04;;;;;;;106.78;56.65;;;6.40;99.90;;;;;;5080239;28;20038;-75
2022/12/14 11:54:36;;;;;;;105.78;57.28;;;6.50;99.90;;;;;;5089872;28;20023;-75
2022/12/14 11:57:12;;;;;;;119.45;61.15;;;6.30;99.90;;;;;;5086272;28;20027;-75
2022/12/14 11:59:46;;;;;;;119.18;61.60;;;6.40;99.90;;;;;;5089362;27;20028;-75
2022/12/14 12:02:38;;;;;;;106.95;58.25;;;6.60;99.90;;;;;;5089383;28;20031;-75
2022/12/14 12:05:10;;;;;;;125.55;62.63;;;6.60;99.90;;;;;;5089668;28;20039;-75
2022/12/14 12:07:41;;;;;;;110.18;59.25;;;6.30;99.90;;;;;;5090595;28;20868;-75
2022/12/14 12:10:13;;;;;;;120.13;59.90;;;6.30;99.90;;;;;;5085363;28;20031;-74
2022/12/14 12:13:00;;;;;;;113.18;61.72;;;6.40;99.90;;;;;;5085798;28;20384;-75
2022/12/14 12:15:32;;;;;;;133.13;63.05;;;6.70;99.90;;;;;;5090186;28;20594;-75
2022/12/14 12:18:04;;;;;;;109.35;60.45;;;6.80;99.90;;;;;;5088720;27;20036;-75
2022/12/14 12:20:36;;;;;;;121.43;61.38;;;6.80;99.90;;;;;;5088024;28;20051;-74
2022/12/14 12:23:11;;;;;;;115.35;62.15;;;7.00;99.90;;;;;;5089284;28;20023;-75
2022/12/14 12:25:40;;;;;;;135.25;70.45;;;7.00;99.90;;;;;;5087380;28;20027;-75
2022/12/14 12:28:35;;;;;;;155.32;75.60;;;7.10;99.90;;;;;;5087706;27;20110;-75
2022/12/14 12:31:15;;;;;;;148.50;73.35;;;7.00;99.90;;;;;;5082825;27;20158;-74
2022/12/14 12:34:13;;;;;;;137.13;70.22;;;7.10;99.90;;;;;;5082094;27;20107;-74
2022/12/14 12:36:39;;;;;;;139.10;70.05;;;6.90;99.90;;;;;;5079543;28;20111;-75
2022/12/14 12:39:14;;;;;;;125.47;68.75;;;6.60;99.90;;;;;;5083111;28;20027;-74
2022/12/14 12:42:03;;;;;;;139.20;74.10;;;6.40;99.90;;;;;;5085144;28;20039;-75
2022/12/14 12:44:32;;;;;;;134.20;70.60;;;6.30;99.90;;;;;;5087345;28;20031;-75
2022/12/14 12:46:59;;;;;;;171.43;75.57;;;6.30;99.90;;;;;;5089707;28;20473;-75
2022/12/14 12:49:28;;;;;;;141.32;74.03;;;6.10;99.90;;;;;;5089775;28;20160;-78
2022/12/14 12:52:05;;;;;;;172.57;76.82;;;6.10;99.90;;;;;;5092596;27;20026;-76
2022/12/14 12:54:39;;;;;;;143.83;73.30;;;6.00;99.90;;;;;;5087530;28;20049;-73
2022/12/14 12:57:09;;;;;;;148.68;72.95;;;6.00;99.90;;;;;;5089172;28;20149;-75
2022/12/14 12:59:43;;;;;;;143.52;73.10;;;5.90;99.90;;;;;;5072112;28;20512;-74
2022/12/14 13:02:25;;;;;;;133.85;69.70;;;5.90;99.90;;;;;;5090091;28;20042;-74
2022/12/14 13:04:52;;;;;;;141.15;69.30;;;5.90;99.90;;;;;;5090038;28;20510;-75
2022/12/14 13:07:37;;;;;;;150.32;72.45;;;6.00;99.90;;;;;;5090052;28;20090;-74
2022/12/14 13:10:29;;;;;;;139.60;73.07;;;5.90;99.90;;;;;;5084531;28;20038;-72